sensor_id;sensor_type;location;lat;lon;timestamp;pressure;altitude;pressure_sealevel;temperature;humidity
75420;BME280;63998;52.488;13.428;2022-11-23T00:02:07;99865.06;;;3.28;75.94
75420;BME280;63998;52.488;13.428;2022-11-23T00:04:32;99865.78;;;3.19;75.76
75420;BME280;63998;52.488;13.428;2022-11-23T00:06:57;99854.56;;;3.14;76.02
75420;BME280;63998;52.488;13.428;2022-11-23T00:09:25;99846.09;;;3.21;76.35
75420;BME280;63998;52.488;13.428;2022-11-23T00:11:50;99849.56;;;3.23;76.39
75420;BME280;63998;52.488;13.428;2022-11-23T00:14:18;99842.81;;;3.29;76.07
75420;BME280;63998;52.488;13.428;2022-11-23T00:16:43;99846.22;;;3.28;76.01
75420;BME280;63998;52.488;13.428;2022-11-23T00:19:11;99844.44;;;3.23;76.14
75420;BME280;63998;52.488;13.428;2022-11-23T00:21:36;99847.84;;;3.22;76.17
75420;BME280;63998;52.488;13.428;2022-11-23T00:24:02;99841.78;;;3.17;76.25
75420;BME280;63998;52.488;13.428;2022-11-23T00:26:27;99839.97;;;3.12;76.02
75420;BME280;63998;52.488;13.428;2022-11-23T00:28:53;99841.72;;;3.14;76.13
75420;BME280;63998;52.488;13.428;2022-11-23T00:31:19;99840.06;;;3.16;76.35
75420;BME280;63998;52.488;13.428;2022-11-23T00:33:51;99849.28;;;3.05;76.23
75420;BME280;63998;52.488;13.428;2022-11-23T00:36:18;99843.31;;;3.09;76.36
75420;BME280;63998;52.488;13.428;2022-11-23T00:38:44;99847.75;;;3.16;76.55
75420;BME280;63998;52.488;13.428;2022-11-23T00:41:13;99852.13;;;3.23;76.34
75420;BME280;63998;52.488;13.428;2022-11-23T00:43:39;99851.34;;;3.28;76.24
75420;BME280;63998;52.488;13.428;2022-11-23T00:48:44;99863.28;;;3.25;76.30
75420;BME280;63998;52.488;13.428;2022-11-23T00:51:17;99875.16;;;3.19;75.98
75420;BME280;63998;52.488;13.428;2022-11-23T00:53:43;99867.28;;;3.08;76.38
75420;BME280;63998;52.488;13.428;2022-11-23T00:56:11;99871.56;;;3.09;76.32
75420;BME280;63998;52.488;13.428;2022-11-23T00:58:40;99868.13;;;3.07;76.58
75420;BME280;63998;52.488;13.428;2022-11-23T01:01:10;99871.31;;;2.97;76.66
75420;BME280;63998;52.488;13.428;2022-11-23T01:03:46;99872.06;;;2.90;76.83
75420;BME280;63998;52.488;13.428;2022-11-23T01:06:14;99870.28;;;2.86;77.17
75420;BME280;63998;52.488;13.428;2022-11-23T01:08:40;99869.41;;;2.84;77.19
75420;BME280;63998;52.488;13.428;2022-11-23T01:11:08;99869.44;;;2.87;77.46
75420;BME280;63998;52.488;13.428;2022-11-23T01:13:38;99866.94;;;2.90;77.50
75420;BME280;63998;52.488;13.428;2022-11-23T01:16:09;99867.84;;;2.92;77.21
75420;BME280;63998;52.488;13.428;2022-11-23T01:18:37;99867.78;;;2.89;77.08
75420;BME280;63998;52.488;13.428;2022-11-23T01:21:02;99876.19;;;2.82;77.23
75420;BME280;63998;52.488;13.428;2022-11-23T01:23:28;99872.72;;;2.80;77.24
75420;BME280;63998;52.488;13.428;2022-11-23T01:25:57;99872.72;;;2.80;77.46
75420;BME280;63998;52.488;13.428;2022-11-23T01:28:27;99869.50;;;2.90;77.39
75420;BME280;63998;52.488;13.428;2022-11-23T01:31:01;99867.03;;;2.95;77.78
75420;BME280;63998;52.488;13.428;2022-11-23T01:33:26;99864.66;;;3.05;77.65
75420;BME280;63998;52.488;13.428;2022-11-23T01:35:51;99874.06;;;3.05;77.38
75420;BME280;63998;52.488;13.428;2022-11-23T01:38:19;99869.84;;;3.08;77.28
75420;BME280;63998;52.488;13.428;2022-11-23T01:40:45;99873.41;;;3.16;77.08
75420;BME280;63998;52.488;13.428;2022-11-23T01:43:16;99877.66;;;3.16;77.28
75420;BME280;63998;52.488;13.428;2022-11-23T01:46:02;99880.34;;;3.20;76.95
75420;BME280;63998;52.488;13.428;2022-11-23T01:48:37;99876.97;;;3.24;77.07
75420;BME280;63998;52.488;13.428;2022-11-23T01:51:11;99884.63;;;3.23;76.54
75420;BME280;63998;52.488;13.428;2022-11-23T01:53:38;99889.09;;;3.35;76.62
75420;BME280;63998;52.488;13.428;2022-11-23T01:56:06;99887.41;;;3.34;76.47
75420;BME280;63998;52.488;13.428;2022-11-23T01:58:36;99891.63;;;3.32;76.43
75420;BME280;63998;52.488;13.428;2022-11-23T02:01:08;99892.41;;;3.28;76.34
75420;BME280;63998;52.488;13.428;2022-11-23T02:03:35;99883.88;;;3.29;76.43
75420;BME280;63998;52.488;13.428;2022-11-23T02:06:06;99894.16;;;3.29;76.42
75420;BME280;63998;52.488;13.428;2022-11-23T02:08:32;99890.81;;;3.33;76.51
75420;BME280;63998;52.488;13.428;2022-11-23T02:10:58;99879.66;;;3.31;76.19
75420;BME280;63998;52.488;13.428;2022-11-23T02:13:24;99877.00;;;3.28;76.47
75420;BME280;63998;52.488;13.428;2022-11-23T02:15:52;99881.31;;;3.29;76.58
75420;BME280;63998;52.488;13.428;2022-11-23T02:18:23;99880.41;;;3.27;76.86
75420;BME280;63998;52.488;13.428;2022-11-23T02:20:50;99883.81;;;3.25;76.63
75420;BME280;63998;52.488;13.428;2022-11-23T02:26:08;99880.63;;;3.39;76.93
75420;BME280;63998;52.488;13.428;2022-11-23T02:28:51;99880.63;;;3.39;76.88
75420;BME280;63998;52.488;13.428;2022-11-23T02:31:18;99876.28;;;3.33;76.64
75420;BME280;63998;52.488;13.428;2022-11-23T02:33:46;99871.13;;;3.35;76.71
75420;BME280;63998;52.488;13.428;2022-11-23T02:36:33;99873.63;;;3.29;76.54
75420;BME280;63998;52.488;13.428;2022-11-23T02:39:02;99877.06;;;3.31;76.95
75420;BME280;63998;52.488;13.428;2022-11-23T02:41:40;99868.53;;;3.32;76.57
75420;BME280;63998;52.488;13.428;2022-11-23T02:44:11;99875.56;;;3.42;76.97
75420;BME280;63998;52.488;13.428;2022-11-23T02:46:42;99873.91;;;3.47;76.79
75420;BME280;63998;52.488;13.428;2022-11-23T02:49:07;99862.78;;;3.46;76.25
75420;BME280;63998;52.488;13.428;2022-11-23T02:51:32;99867.16;;;3.52;76.95
75420;BME280;63998;52.488;13.428;2022-11-23T02:53:58;99871.41;;;3.50;76.37
75420;BME280;63998;52.488;13.428;2022-11-23T02:56:23;99878.03;;;3.37;76.32
75420;BME280;63998;52.488;13.428;2022-11-23T02:58:48;99878.84;;;3.35;76.36
75420;BME280;63998;52.488;13.428;2022-11-23T03:01:14;99882.31;;;3.38;76.38
75420;BME280;63998;52.488;13.428;2022-11-23T03:03:39;99875.50;;;3.39;76.53
75420;BME280;63998;52.488;13.428;2022-11-23T03:06:05;99878.97;;;3.41;76.62
75420;BME280;63998;52.488;13.428;2022-11-23T03:08:32;99889.22;;;3.41;76.23
75420;BME280;63998;52.488;13.428;2022-11-23T03:11:00;99884.94;;;3.41;76.21
75420;BME280;63998;52.488;13.428;2022-11-23T03:13:26;99897.69;;;3.37;76.33
75420;BME280;63998;52.488;13.428;2022-11-23T03:15:55;99900.41;;;3.44;76.55
75420;BME280;63998;52.488;13.428;2022-11-23T03:18:24;99897.97;;;3.52;76.66
75420;BME280;63998;52.488;13.428;2022-11-23T03:20:49;99897.97;;;3.52;76.26
75420;BME280;63998;52.488;13.428;2022-11-23T03:23:15;99895.38;;;3.50;76.15
75420;BME280;63998;52.488;13.428;2022-11-23T03:25:40;99891.09;;;3.51;75.99
75420;BME280;63998;52.488;13.428;2022-11-23T03:28:08;99897.66;;;3.34;75.84
75420;BME280;63998;52.488;13.428;2022-11-23T03:30:35;99889.63;;;3.15;76.06
75420;BME280;63998;52.488;13.428;2022-11-23T03:33:01;99897.41;;;3.21;76.51
75420;BME280;63998;52.488;13.428;2022-11-23T03:35:26;99894.06;;;3.24;76.62
75420;BME280;63998;52.488;13.428;2022-11-23T03:37:51;99902.75;;;3.31;76.67
75420;BME280;63998;52.488;13.428;2022-11-23T03:40:19;99887.16;;;3.21;76.89
75420;BME280;63998;52.488;13.428;2022-11-23T03:42:47;99882.25;;;3.32;76.67
75420;BME280;63998;52.488;13.428;2022-11-23T03:45:15;99888.94;;;3.25;76.58
75420;BME280;63998;52.488;13.428;2022-11-23T03:47:40;99880.34;;;3.23;76.35
75420;BME280;63998;52.488;13.428;2022-11-23T03:50:06;99888.06;;;3.23;76.74
75420;BME280;63998;52.488;13.428;2022-11-23T03:52:31;99892.25;;;3.18;76.38
75420;BME280;63998;52.488;13.428;2022-11-23T03:54:59;99888.78;;;3.16;76.30
75420;BME280;63998;52.488;13.428;2022-11-23T03:57:24;99892.34;;;3.24;76.59
75420;BME280;63998;52.488;13.428;2022-11-23T03:59:49;99892.50;;;3.32;76.76
75420;BME280;63998;52.488;13.428;2022-11-23T04:02:15;99896.72;;;3.29;76.45
75420;BME280;63998;52.488;13.428;2022-11-23T04:04:40;99896.66;;;3.25;76.58
75420;BME280;63998;52.488;13.428;2022-11-23T04:07:05;99893.94;;;3.16;76.60
75420;BME280;63998;52.488;13.428;2022-11-23T04:09:31;99895.59;;;3.14;76.15
75420;BME280;63998;52.488;13.428;2022-11-23T04:11:56;99892.81;;;3.02;76.47
75420;BME280;63998;52.488;13.428;2022-11-23T04:14:23;99893.66;;;3.01;76.71
75420;BME280;63998;52.488;13.428;2022-11-23T04:16:49;99896.94;;;2.94;76.61
75420;BME280;63998;52.488;13.428;2022-11-23T04:19:14;99896.94;;;2.94;76.93
75420;BME280;63998;52.488;13.428;2022-11-23T04:21:41;99896.94;;;2.94;77.32
75420;BME280;63998;52.488;13.428;2022-11-23T04:24:07;99893.47;;;2.92;77.00
75420;BME280;63998;52.488;13.428;2022-11-23T04:26:32;99897.84;;;2.96;76.90
75420;BME280;63998;52.488;13.428;2022-11-23T04:28:57;99894.50;;;3.02;77.48
75420;BME280;63998;52.488;13.428;2022-11-23T04:31:25;99901.31;;;3.00;77.29
75420;BME280;63998;52.488;13.428;2022-11-23T04:33:54;99897.84;;;2.96;77.15
75420;BME280;63998;52.488;13.428;2022-11-23T04:36:20;99903.75;;;2.92;76.89
75420;BME280;63998;52.488;13.428;2022-11-23T04:38:45;99898.47;;;2.86;77.06
75420;BME280;63998;52.488;13.428;2022-11-23T04:41:11;99899.31;;;2.85;76.98
75420;BME280;63998;52.488;13.428;2022-11-23T04:43:38;99902.84;;;2.90;76.93
75420;BME280;63998;52.488;13.428;2022-11-23T04:46:04;99913.00;;;2.85;77.28
75420;BME280;63998;52.488;13.428;2022-11-23T04:48:29;99912.13;;;2.85;76.90
75420;BME280;63998;52.488;13.428;2022-11-23T04:51:02;99906.09;;;2.81;76.99
75420;BME280;63998;52.488;13.428;2022-11-23T04:53:27;99906.13;;;2.83;77.08
75420;BME280;63998;52.488;13.428;2022-11-23T04:55:55;99907.88;;;2.85;77.32
75420;BME280;63998;52.488;13.428;2022-11-23T04:58:20;99907.13;;;2.91;77.14
75420;BME280;63998;52.488;13.428;2022-11-23T05:00:45;99907.69;;;2.76;77.20
75420;BME280;63998;52.488;13.428;2022-11-23T05:03:10;99908.63;;;2.80;77.00
75420;BME280;63998;52.488;13.428;2022-11-23T05:05:37;99907.91;;;2.87;77.35
75420;BME280;63998;52.488;13.428;2022-11-23T05:08:06;99906.31;;;2.92;77.16
75420;BME280;63998;52.488;13.428;2022-11-23T05:10:31;99907.72;;;2.78;77.19
75420;BME280;63998;52.488;13.428;2022-11-23T05:12:57;99905.16;;;2.78;77.35
75420;BME280;63998;52.488;13.428;2022-11-23T05:15:22;99913.75;;;2.80;77.50
75420;BME280;63998;52.488;13.428;2022-11-23T05:17:47;99911.19;;;2.80;77.25
75420;BME280;63998;52.488;13.428;2022-11-23T05:20:13;99908.41;;;2.68;77.24
75420;BME280;63998;52.488;13.428;2022-11-23T05:22:38;99906.75;;;2.73;77.42
75420;BME280;63998;52.488;13.428;2022-11-23T05:25:06;99899.97;;;2.75;77.57
75420;BME280;63998;52.488;13.428;2022-11-23T05:27:35;99901.63;;;2.73;77.42
75420;BME280;63998;52.488;13.428;2022-11-23T05:30:03;99897.44;;;2.76;77.43
75420;BME280;63998;52.488;13.428;2022-11-23T05:32:28;99901.84;;;2.82;77.30
75420;BME280;63998;52.488;13.428;2022-11-23T05:34:56;99902.94;;;2.95;77.28
75420;BME280;63998;52.488;13.428;2022-11-23T05:37:23;99902.06;;;2.94;77.15
75420;BME280;63998;52.488;13.428;2022-11-23T05:39:49;99896.88;;;2.91;76.93
75420;BME280;63998;52.488;13.428;2022-11-23T05:42:14;99891.81;;;2.94;77.37
75420;BME280;63998;52.488;13.428;2022-11-23T05:44:39;99897.81;;;2.95;76.87
75420;BME280;63998;52.488;13.428;2022-11-23T05:47:07;99894.50;;;3.02;77.11
75420;BME280;63998;52.488;13.428;2022-11-23T05:49:32;99899.75;;;3.06;77.03
75420;BME280;63998;52.488;13.428;2022-11-23T05:51:58;99902.25;;;3.03;76.93
75420;BME280;63998;52.488;13.428;2022-11-23T05:54:23;99904.53;;;2.89;76.53
75420;BME280;63998;52.488;13.428;2022-11-23T05:56:48;99899.47;;;2.93;76.90
75420;BME280;63998;52.488;13.428;2022-11-23T05:59:13;99892.72;;;2.98;76.88
75420;BME280;63998;52.488;13.428;2022-11-23T06:01:39;99895.28;;;2.96;76.62
75420;BME280;63998;52.488;13.428;2022-11-23T06:04:04;99895.38;;;3.02;76.72
75420;BME280;63998;52.488;13.428;2022-11-23T06:06:32;99892.97;;;3.11;76.97
75420;BME280;63998;52.488;13.428;2022-11-23T06:08:57;99890.47;;;3.14;76.87
75420;BME280;63998;52.488;13.428;2022-11-23T06:11:25;99892.13;;;3.12;76.60
75420;BME280;63998;52.488;13.428;2022-11-23T06:13:50;99896.56;;;3.19;76.66
75420;BME280;63998;52.488;13.428;2022-11-23T06:16:15;99903.38;;;3.19;76.27
75420;BME280;63998;52.488;13.428;2022-11-23T06:18:41;99902.53;;;3.18;75.91
75420;BME280;63998;52.488;13.428;2022-11-23T06:21:09;99898.78;;;3.01;75.99
75420;BME280;63998;52.488;13.428;2022-11-23T06:23:37;99909.84;;;2.99;76.36
75420;BME280;63998;52.488;13.428;2022-11-23T06:26:02;99909.56;;;2.85;76.59
75420;BME280;63998;52.488;13.428;2022-11-23T06:28:28;99912.28;;;2.91;76.47
75420;BME280;63998;52.488;13.428;2022-11-23T06:30:54;99918.31;;;2.95;76.79
75420;BME280;63998;52.488;13.428;2022-11-23T06:33:20;99917.41;;;2.91;76.61
75420;BME280;63998;52.488;13.428;2022-11-23T06:35:53;99914.91;;;2.94;76.64
75420;BME280;63998;52.488;13.428;2022-11-23T06:38:19;99919.19;;;2.95;76.65
75420;BME280;63998;52.488;13.428;2022-11-23T06:40:47;99919.13;;;2.92;76.43
75420;BME280;63998;52.488;13.428;2022-11-23T06:43:15;99914.69;;;2.85;76.38
75420;BME280;63998;52.488;13.428;2022-11-23T06:45:40;99920.63;;;2.81;76.59
75420;BME280;63998;52.488;13.428;2022-11-23T06:48:05;99920.72;;;2.87;77.31
75420;BME280;63998;52.488;13.428;2022-11-23T06:50:31;99926.69;;;2.86;77.19
75420;BME280;63998;52.488;13.428;2022-11-23T06:52:56;99928.50;;;2.90;76.75
75420;BME280;63998;52.488;13.428;2022-11-23T06:55:23;99923.28;;;2.87;76.81
75420;BME280;63998;52.488;13.428;2022-11-23T06:57:49;99927.53;;;2.85;76.60
75420;BME280;63998;52.488;13.428;2022-11-23T07:00:18;99930.09;;;2.83;76.76
75420;BME280;63998;52.488;13.428;2022-11-23T07:02:50;99931.06;;;2.90;77.04
75420;BME280;63998;52.488;13.428;2022-11-23T07:05:16;99929.38;;;2.92;76.70
75420;BME280;63998;52.488;13.428;2022-11-23T07:07:43;99929.47;;;2.95;76.73
75420;BME280;63998;52.488;13.428;2022-11-23T07:10:09;99927.75;;;2.97;76.43
75420;BME280;63998;52.488;13.428;2022-11-23T07:12:37;99940.69;;;3.02;76.78
75420;BME280;63998;52.488;13.428;2022-11-23T07:15:03;99938.09;;;3.00;76.51
75420;BME280;63998;52.488;13.428;2022-11-23T07:17:31;99938.09;;;3.00;76.67
75420;BME280;63998;52.488;13.428;2022-11-23T07:19:58;99945.00;;;3.04;76.60
75420;BME280;63998;52.488;13.428;2022-11-23T07:22:23;99946.81;;;3.08;76.79
75420;BME280;63998;52.488;13.428;2022-11-23T07:24:51;99950.25;;;3.10;76.79
75420;BME280;63998;52.488;13.428;2022-11-23T07:27:19;99953.72;;;3.12;76.36
75420;BME280;63998;52.488;13.428;2022-11-23T07:29:44;99951.97;;;3.11;76.44
75420;BME280;63998;52.488;13.428;2022-11-23T07:32:10;99961.47;;;3.15;76.58
75420;BME280;63998;52.488;13.428;2022-11-23T07:34:35;99964.91;;;3.16;76.42
75420;BME280;63998;52.488;13.428;2022-11-23T07:37:03;99962.38;;;3.17;76.22
75420;BME280;63998;52.488;13.428;2022-11-23T07:39:28;99957.31;;;3.20;76.29
75420;BME280;63998;52.488;13.428;2022-11-23T07:41:54;99957.31;;;3.20;75.96
75420;BME280;63998;52.488;13.428;2022-11-23T07:44:21;99968.44;;;3.21;75.99
75420;BME280;63998;52.488;13.428;2022-11-23T07:46:47;99963.00;;;3.06;75.51
75420;BME280;63998;52.488;13.428;2022-11-23T07:49:12;99969.03;;;3.09;75.98
75420;BME280;63998;52.488;13.428;2022-11-23T07:51:38;99971.66;;;3.12;76.19
75420;BME280;63998;52.488;13.428;2022-11-23T07:54:03;99968.31;;;3.15;76.11
75420;BME280;63998;52.488;13.428;2022-11-23T07:56:28;99974.38;;;3.18;76.03
75420;BME280;63998;52.488;13.428;2022-11-23T07:58:54;99974.44;;;3.23;76.09
75420;BME280;63998;52.488;13.428;2022-11-23T08:01:19;99977.03;;;3.24;76.00
75420;BME280;63998;52.488;13.428;2022-11-23T08:03:45;99978.91;;;3.32;76.08
75420;BME280;63998;52.488;13.428;2022-11-23T08:06:12;99976.44;;;3.38;75.80
75420;BME280;63998;52.488;13.428;2022-11-23T08:08:40;99985.94;;;3.43;75.57
75420;BME280;63998;52.488;13.428;2022-11-23T08:11:07;99980.75;;;3.40;75.42
75420;BME280;63998;52.488;13.428;2022-11-23T08:13:36;99991.97;;;3.44;75.65
75420;BME280;63998;52.488;13.428;2022-11-23T08:16:02;99983.50;;;3.51;75.89
75420;BME280;63998;52.488;13.428;2022-11-23T08:18:28;99985.31;;;3.55;75.47
75420;BME280;63998;52.488;13.428;2022-11-23T08:20:53;99985.31;;;3.55;75.40
75420;BME280;63998;52.488;13.428;2022-11-23T08:23:19;99993.84;;;3.54;75.81
75420;BME280;63998;52.488;13.428;2022-11-23T08:25:45;99988.94;;;3.66;75.51
75420;BME280;63998;52.488;13.428;2022-11-23T08:28:11;99987.19;;;3.65;75.34
75420;BME280;63998;52.488;13.428;2022-11-23T08:30:36;99989.69;;;3.62;74.73
75420;BME280;63998;52.488;13.428;2022-11-23T08:33:07;99978.66;;;3.66;75.40
75420;BME280;63998;52.488;13.428;2022-11-23T08:35:34;99978.66;;;3.66;75.34
75420;BME280;63998;52.488;13.428;2022-11-23T08:38:00;99981.94;;;3.59;75.11
75420;BME280;63998;52.488;13.428;2022-11-23T08:40:26;99982.91;;;3.64;75.15
75420;BME280;63998;52.488;13.428;2022-11-23T08:42:51;99981.19;;;3.65;75.40
75420;BME280;63998;52.488;13.428;2022-11-23T08:45:19;99995.56;;;3.55;75.32
75420;BME280;63998;52.488;13.428;2022-11-23T08:47:45;99997.41;;;3.62;75.12
75420;BME280;63998;52.488;13.428;2022-11-23T08:50:13;99980.19;;;3.55;75.48
75420;BME280;63998;52.488;13.428;2022-11-23T08:52:38;99986.84;;;3.47;75.32
75420;BME280;63998;52.488;13.428;2022-11-23T08:55:04;99990.06;;;3.34;75.81
75420;BME280;63998;52.488;13.428;2022-11-23T08:57:29;100002.25;;;3.47;76.10
75420;BME280;63998;52.488;13.428;2022-11-23T08:59:57;99994.78;;;3.59;75.90
75420;BME280;63998;52.488;13.428;2022-11-23T09:02:22;99998.22;;;3.59;76.15
75420;BME280;63998;52.488;13.428;2022-11-23T09:04:50;99999.13;;;3.63;76.04
75420;BME280;63998;52.488;13.428;2022-11-23T09:07:16;99994.16;;;3.72;75.78
75420;BME280;63998;52.488;13.428;2022-11-23T09:09:41;100001.22;;;3.85;75.78
75420;BME280;63998;52.488;13.428;2022-11-23T09:12:06;99996.13;;;3.87;75.57
75420;BME280;63998;52.488;13.428;2022-11-23T09:14:35;100003.03;;;3.89;75.10
75420;BME280;63998;52.488;13.428;2022-11-23T09:17:00;99997.88;;;3.89;75.41
75420;BME280;63998;52.488;13.428;2022-11-23T09:19:26;99996.41;;;4.04;75.38
75420;BME280;63998;52.488;13.428;2022-11-23T09:21:52;99999.16;;;4.16;75.10
75420;BME280;63998;52.488;13.428;2022-11-23T09:24:18;99996.78;;;4.28;74.68
75420;BME280;63998;52.488;13.428;2022-11-23T09:26:43;99986.50;;;4.28;74.70
75420;BME280;63998;52.488;13.428;2022-11-23T09:29:09;99988.94;;;4.19;74.39
75420;BME280;63998;52.488;13.428;2022-11-23T09:31:34;99986.38;;;4.19;74.59
75420;BME280;63998;52.488;13.428;2022-11-23T09:34:03;99979.69;;;4.30;74.63
75420;BME280;63998;52.488;13.428;2022-11-23T09:36:28;99983.09;;;4.29;74.13
75420;BME280;63998;52.488;13.428;2022-11-23T09:38:54;99984.97;;;4.39;74.44
75420;BME280;63998;52.488;13.428;2022-11-23T09:44:39;99979.94;;;4.48;74.17
75420;BME280;63998;52.488;13.428;2022-11-23T09:52:23;99983.81;;;4.81;73.67
75420;BME280;63998;52.488;13.428;2022-11-23T09:54:52;99978.69;;;4.84;73.61
75420;BME280;63998;52.488;13.428;2022-11-23T09:57:23;99974.56;;;4.96;73.19
75420;BME280;63998;52.488;13.428;2022-11-23T09:59:56;99975.41;;;4.94;72.79
75420;BME280;63998;52.488;13.428;2022-11-23T10:02:25;99971.97;;;4.95;72.76
75420;BME280;63998;52.488;13.428;2022-11-23T10:04:54;99970.19;;;4.88;72.74
75420;BME280;63998;52.488;13.428;2022-11-23T10:18:13;99968.81;;;5.17;73.31
75420;BME280;63998;52.488;13.428;2022-11-23T10:25:58;99970.66;;;5.27;72.27
75420;BME280;63998;52.488;13.428;2022-11-23T10:28:28;99970.69;;;5.33;72.38
75420;BME280;63998;52.488;13.428;2022-11-23T10:31:06;99967.31;;;5.37;72.11
75420;BME280;63998;52.488;13.428;2022-11-23T10:34:01;99965.63;;;5.39;72.27
75420;BME280;63998;52.488;13.428;2022-11-23T10:36:28;99972.56;;;5.47;71.85
75420;BME280;63998;52.488;13.428;2022-11-23T10:38:58;99970.81;;;5.46;71.74
75420;BME280;63998;52.488;13.428;2022-11-23T10:41:25;99970.06;;;5.57;72.00
75420;BME280;63998;52.488;13.428;2022-11-23T10:46:40;99960.78;;;5.73;71.81
75420;BME280;63998;52.488;13.428;2022-11-23T10:52:08;99960.03;;;5.86;71.82
75420;BME280;63998;52.488;13.428;2022-11-23T10:54:57;99961.94;;;6.04;71.55
75420;BME280;63998;52.488;13.428;2022-11-23T10:59:59;99953.59;;;6.41;70.86
75420;BME280;63998;52.488;13.428;2022-11-23T11:02:25;99957.13;;;6.60;70.34
75420;BME280;63998;52.488;13.428;2022-11-23T11:05:12;99952.88;;;6.70;69.92
75420;BME280;63998;52.488;13.428;2022-11-23T11:07:40;99953.00;;;6.90;69.73
75420;BME280;63998;52.488;13.428;2022-11-23T11:10:08;99951.31;;;7.07;69.02
75420;BME280;63998;52.488;13.428;2022-11-23T11:12:51;99943.66;;;7.28;68.11
75420;BME280;63998;52.488;13.428;2022-11-23T11:15:16;99935.06;;;7.46;68.16
75420;BME280;63998;52.488;13.428;2022-11-23T11:17:42;99945.41;;;7.72;66.92
75420;BME280;63998;52.488;13.428;2022-11-23T11:22:51;99949.75;;;8.02;65.98
75420;BME280;63998;52.488;13.428;2022-11-23T11:25:37;99939.34;;;8.21;65.60
75420;BME280;63998;52.488;13.428;2022-11-23T11:28:05;99937.63;;;8.42;64.70
75420;BME280;63998;52.488;13.428;2022-11-23T11:30:55;99929.81;;;8.58;64.67
75420;BME280;63998;52.488;13.428;2022-11-23T11:33:38;99932.38;;;8.69;63.80
75420;BME280;63998;52.488;13.428;2022-11-23T11:36:05;99932.41;;;8.60;63.49
75420;BME280;63998;52.488;13.428;2022-11-23T11:38:34;99930.72;;;8.50;63.25
75420;BME280;63998;52.488;13.428;2022-11-23T11:41:05;99933.34;;;8.36;62.90
75420;BME280;63998;52.488;13.428;2022-11-23T11:43:55;99926.41;;;8.50;63.46
75420;BME280;63998;52.488;13.428;2022-11-23T11:46:28;99933.22;;;8.68;63.29
75420;BME280;63998;52.488;13.428;2022-11-23T11:49:10;99937.50;;;8.89;62.30
75420;BME280;63998;52.488;13.428;2022-11-23T11:51:57;99932.31;;;8.87;62.23
75420;BME280;63998;52.488;13.428;2022-11-23T11:54:46;99937.41;;;9.06;62.15
75420;BME280;63998;52.488;13.428;2022-11-23T11:57:20;99939.75;;;9.47;61.54
75420;BME280;63998;52.488;13.428;2022-11-23T11:59:52;99940.38;;;9.81;60.72
75420;BME280;63998;52.488;13.428;2022-11-23T12:02:41;99935.97;;;9.90;59.54
75420;BME280;63998;52.488;13.428;2022-11-23T12:05:13;99945.63;;;9.71;59.63
75420;BME280;63998;52.488;13.428;2022-11-23T12:10:38;99939.97;;;10.29;58.47
75420;BME280;63998;52.488;13.428;2022-11-23T12:13:12;99932.56;;;10.74;58.18
75420;BME280;63998;52.488;13.428;2022-11-23T12:15:42;99928.66;;;11.10;56.38
75420;BME280;63998;52.488;13.428;2022-11-23T12:21:01;99929.31;;;10.55;56.85
75420;BME280;63998;52.488;13.428;2022-11-23T12:23:34;99922.94;;;10.82;56.66
75420;BME280;63998;52.488;13.428;2022-11-23T12:26:14;99930.13;;;10.60;57.59
75420;BME280;63998;52.488;13.428;2022-11-23T12:31:49;99927.66;;;10.50;57.69
75420;BME280;63998;52.488;13.428;2022-11-23T12:42:41;99929.66;;;10.23;58.91
75420;BME280;63998;52.488;13.428;2022-11-23T12:48:17;99931.13;;;10.49;57.59
75420;BME280;63998;52.488;13.428;2022-11-23T12:51:03;99928.31;;;10.68;57.38
75420;BME280;63998;52.488;13.428;2022-11-23T12:53:40;99928.41;;;10.61;57.06
75420;BME280;63998;52.488;13.428;2022-11-23T12:58:55;99925.28;;;11.00;56.10
75420;BME280;63998;52.488;13.428;2022-11-23T13:01:33;99932.28;;;11.58;55.68
75420;BME280;63998;52.488;13.428;2022-11-23T13:04:21;99932.78;;;11.84;54.09
75420;BME280;63998;52.488;13.428;2022-11-23T13:15:19;99919.91;;;13.12;51.06
75420;BME280;63998;52.488;13.428;2022-11-23T13:20:53;99920.75;;;12.73;51.72
75420;BME280;63998;52.488;13.428;2022-11-23T13:23:29;99932.44;;;12.52;52.01
75420;BME280;63998;52.488;13.428;2022-11-23T13:28:40;99922.50;;;13.14;50.53
75420;BME280;63998;52.488;13.428;2022-11-23T13:33:45;99918.03;;;13.94;48.63
75420;BME280;63998;52.488;13.428;2022-11-23T13:36:32;99913.19;;;13.42;49.25
75420;BME280;63998;52.488;13.428;2022-11-23T13:39:02;99916.25;;;12.81;50.74
75420;BME280;63998;52.488;13.428;2022-11-23T13:44:18;99928.94;;;12.07;52.31
75420;BME280;63998;52.488;13.428;2022-11-23T13:47:01;99928.84;;;11.58;53.66
75420;BME280;63998;52.488;13.428;2022-11-23T13:49:46;99922.41;;;11.25;54.72
75420;BME280;63998;52.488;13.428;2022-11-23T13:52:30;99930.59;;;10.94;55.61
75420;BME280;63998;52.488;13.428;2022-11-23T13:57:40;99927.47;;;10.65;56.59
75420;BME280;63998;52.488;13.428;2022-11-23T14:00:47;99931.00;;;10.61;56.52
75420;BME280;63998;52.488;13.428;2022-11-23T14:06:27;99931.41;;;11.59;54.75
75420;BME280;63998;52.488;13.428;2022-11-23T14:09:22;99928.69;;;12.22;53.33
75420;BME280;63998;52.488;13.428;2022-11-23T14:11:55;99931.25;;;12.70;51.99
75420;BME280;63998;52.488;13.428;2022-11-23T14:14:27;99928.78;;;13.05;51.06
75420;BME280;63998;52.488;13.428;2022-11-23T14:17:03;99936.38;;;13.17;50.41
75420;BME280;63998;52.488;13.428;2022-11-23T14:22:32;99927.66;;;13.57;49.43
75420;BME280;63998;52.488;13.428;2022-11-23T14:25:27;99932.75;;;13.23;49.27
75420;BME280;63998;52.488;13.428;2022-11-23T14:28:30;99932.88;;;12.29;51.76
75420;BME280;63998;52.488;13.428;2022-11-23T14:36:48;99942.78;;;12.09;52.15
75420;BME280;63998;52.488;13.428;2022-11-23T14:41:58;99945.69;;;11.31;54.45
75420;BME280;63998;52.488;13.428;2022-11-23T14:44:26;99951.19;;;11.08;55.26
75420;BME280;63998;52.488;13.428;2022-11-23T14:47:01;99949.94;;;10.67;55.60
75420;BME280;63998;52.488;13.428;2022-11-23T14:49:27;99951.94;;;10.42;56.82
75420;BME280;63998;52.488;13.428;2022-11-23T14:51:53;99959.09;;;10.16;57.01